Aeroporto :
LOGIN :

Iscrizione | Disclaimer

   EN    FR    IT 

 










Sommario :    VFR   VFR Marginale   IFR   IFR Intensivo   IFR Molto Intensivo
Visibilità : 
Base nubi : 
>= 8 km
>= 3000ft
5 / 8 km
1000 / 3000 ft
1500m / 5 km
500 / 1000 ft
800 / 1500m
200 / 500 ft
< 800m
< 200 ft
Simboli :   Temporali  Nebbia  Neve Forte  Precipitazioni Forti  Vento > 20 kt
SIGMETs :   Varie  Temporali  Ghiacco  Turbolenza  Onda orograficha  Ceneri Vulcaniche






- Altitudine del aeroporto : 308 ft


ESIA - Karlsborg Air Base

ULTIMO METAR :
  • 311850Z AUTO 13006KT 9999 FEW006/// SCT008/// OVC011/// 10/09 Q1017

METARs OBSOLETI :
  • 311820Z AUTO 14005KT 9999 FEW008/// OVC012/// 10/09 Q1017
  • 311750Z AUTO 15004KT 9999 -SHRA SCT003/// OVC012/// 10/09 Q1017
  • 311720Z AUTO 17006KT 140V210 4600 FEW004/// SCT006/// BKN015/// OVC022/// 10/09 Q1017
  • 311650Z AUTO 17005KT 150V210 9999 BKN026/// OVC052/// 10/09 Q1018
  • 311620Z AUTO 18005KT 9999 SCT037/// 09/08 Q1018

Previsioni scadute.



MetMap, La meteo Aeronautica in un colpo d'occhio ! - Copyright ORBIFLY Dicembre 2007 - Disclaimer

ORBIFLY MET'MAP TEAM :

Programmazione e sviluppo : Alexandra Zaïnal
Concezione : Baudouin d'Aumeries
Aiuto per la programmazione : Marc-Olivier Méhu
Supporto tecnico e logistico : Manuel Goepfert
Aiuto per la traduzione : Arnaldo La Scala

Contatto : metmap@orbifly.com




FONTI E CREDITI :

   NOAA